DAUH

Details ICAO DAUH (HME)
Name OUED IRARA
Region Algeria
Timezone Africa/Algiers (UTC+1.0)
Plans Departing 40
Arriving 37
Stats Elevation 463 ft / 141 m (AMSL)
Location 31.672900° 6.140458°
Runways 1
Magnetic Variation 1.418° E
Sunrise 2017-12-13 06:27:51 UTC / 2017-12-13 07:27:51 Local
Sunset 2017-12-13 16:34:15 UTC / 2017-12-13 17:34:15 Local
Advertisement - Login to hide

Runways

ID Width Length Bearing (true) Bearing (mag) Surface Threshold Offset Overrun Length
18 148 ft / 45 m 9,952 ft / 3,034 m 184.21° 182.79° Asphalt 0 ft / 0 m 328 ft / 100 m
36 148 ft / 45 m 9,952 ft / 3,034 m 4.20° 2.78° Asphalt 0 ft / 0 m 328 ft / 100 m

Map

Weather


0- 5 10 15 20 25 30 35+ Temperature / ° C

Clouds and Precipitation
Forecast for 2017-12-13 12:00 UTC. Updated 2 hours ago

Ground ~20,000 ft ~40,000 ft Winds

METAR

Not found

TAF

TAF AMD DAUH 130737Z 1307/1406 VRB02KT 3000 BR BECMG 1308/1311 02010KT 6000 NSW

Frequencies

Tower 118.10 MHz HASSI MESSAOUD TWR
Approach 120.00 MHz HASSI MESSAOUD APP
Tower 119.70 MHz HASSI MESSAOUD TWR
Warning: Do not use this data for real-world aviation or navigation. No guarantee of current accuracy is given.